createdAt,value
2018-01-23T00:00:10.008Z,91.76
2018-01-23T00:01:41.123Z,91.77
2018-01-23T00:03:08.280Z,92.01
2018-01-23T00:04:31.068Z,92.14
2018-01-23T00:05:58.090Z,92.15
2018-01-23T00:07:25.101Z,92.28
2018-01-23T00:08:57.262Z,92.26
2018-01-23T00:10:23.300Z,92.44
2018-01-23T00:11:50.545Z,92.59
2018-01-23T00:13:17.453Z,92.68
2018-01-23T00:14:44.589Z,92.72
2018-01-23T00:16:11.821Z,92.63
2018-01-23T00:17:35.038Z,92.75
2018-01-23T00:19:02.246Z,92.57
2018-01-23T00:20:33.149Z,92.56
2018-01-23T00:21:56.023Z,92.71
2018-01-23T00:23:22.996Z,92.65
2018-01-23T00:24:54.128Z,92.66
2018-01-23T00:26:17.236Z,92.64
2018-01-23T00:27:44.357Z,92.61
2018-01-23T00:29:11.397Z,92.58
2018-01-23T00:30:42.676Z,92.66
2018-01-23T00:32:05.824Z,92.45
2018-01-23T00:33:36.785Z,92.33
2018-01-23T00:34:59.846Z,92.09
2018-01-23T00:36:26.855Z,92.28
2018-01-23T00:37:57.963Z,92.47
2018-01-23T00:39:21.196Z,92.65
2018-01-23T00:40:55.230Z,92.60
2018-01-23T00:42:19.246Z,91.85
2018-01-23T00:43:42.101Z,91.55
2018-01-23T00:45:13.162Z,91.39
2018-01-23T00:46:40.492Z,91.38
2018-01-23T00:48:07.457Z,91.37
2018-01-23T00:49:30.531Z,91.18
2018-01-23T00:50:57.461Z,91.41
2018-01-23T00:52:28.196Z,91.55
2018-01-23T00:53:55.071Z,91.67
2018-01-23T00:55:22.291Z,91.46
2018-01-23T00:56:49.432Z,91.32
2018-01-23T00:58:16.491Z,91.01
2018-01-23T00:59:39.499Z,91.19
2018-01-23T01:01:10.622Z,91.09
2018-01-23T01:02:37.682Z,91.09
2018-01-23T01:04:04.720Z,91.19
2018-01-23T01:05:27.519Z,91.56
2018-01-23T01:06:58.425Z,91.42
2018-01-23T01:08:25.541Z,91.64
2018-01-23T01:09:48.732Z,91.70
2018-01-23T01:11:19.914Z,91.59
2018-01-23T01:12:43.099Z,91.11
2018-01-23T01:14:14.126Z,91.27
2018-01-23T01:15:41.165Z,91.20
2018-01-23T01:17:08.402Z,91.51
2018-01-23T01:18:31.592Z,91.52
2018-01-23T01:19:58.806Z,91.28
2018-01-23T01:21:25.745Z,91.43
2018-01-23T01:22:52.656Z,91.13
2018-01-23T01:24:19.987Z,91.13
2018-01-23T01:25:47.163Z,91.20
2018-01-23T01:27:18.159Z,91.23
2018-01-23T01:28:41.315Z,91.51
2018-01-23T01:30:12.325Z,90.88
2018-01-23T01:31:39.424Z,91.27
2018-01-23T01:33:06.639Z,91.04
2018-01-23T01:34:29.820Z,91.29
2018-01-23T01:36:00.918Z,91.35
2018-01-23T01:37:27.820Z,91.26
2018-01-23T01:38:55.008Z,91.39
2018-01-23T01:40:22.118Z,91.31
2018-01-23T01:41:49.255Z,91.50
2018-01-23T01:43:16.234Z,91.35
2018-01-23T01:44:43.052Z,91.55
2018-01-23T01:46:06.095Z,91.47
2018-01-23T01:47:33.242Z,91.51
2018-01-23T01:49:00.135Z,91.64
2018-01-23T01:50:27.187Z,91.85
2018-01-23T01:51:58.376Z,91.64
2018-01-23T01:53:21.407Z,91.55
2018-01-23T01:54:48.465Z,91.65
2018-01-23T01:56:15.656Z,91.71
2018-01-23T01:57:42.933Z,91.63
2018-01-23T01:59:13.987Z,91.58
2018-01-23T02:00:41.033Z,91.57
2018-01-23T02:02:04.055Z,91.56
2018-01-23T02:03:31.115Z,91.53
2018-01-23T02:04:58.175Z,91.62
2018-01-23T02:06:25.157Z,91.78
2018-01-23T02:07:52.248Z,91.97
2018-01-23T02:09:19.609Z,92.08
2018-01-23T02:10:46.593Z,91.91
2018-01-23T02:12:13.969Z,91.59
2018-01-23T02:13:40.992Z,91.65
2018-01-23T02:15:12.122Z,91.76
2018-01-23T02:16:39.255Z,91.49
2018-01-23T02:18:06.450Z,91.32
2018-01-23T02:19:33.546Z,91.55
2018-01-23T02:20:56.525Z,91.94
2018-01-23T02:22:27.814Z,92.03
2018-01-23T02:23:50.775Z,91.96
2018-01-23T02:25:21.888Z,92.38
2018-01-23T02:26:45.095Z,92.53
2018-01-23T02:28:16.101Z,92.45
2018-01-23T02:29:39.067Z,92.22
2018-01-23T02:31:06.269Z,92.33
2018-01-23T02:32:37.232Z,92.57
2018-01-23T02:34:04.368Z,92.51
2018-01-23T02:35:27.276Z,92.17
2018-01-23T02:36:58.478Z,92.24
2018-01-23T02:38:25.677Z,92.34
2018-01-23T02:39:48.942Z,92.12
2018-01-23T02:41:16.107Z,92.16
2018-01-23T02:42:47.289Z,91.86
2018-01-23T02:44:14.472Z,91.55
2018-01-23T02:45:41.480Z,91.49
2018-01-23T02:47:04.694Z,91.21
2018-01-23T02:48:35.799Z,91.30
2018-01-23T02:49:58.923Z,91.50
2018-01-23T02:51:25.963Z,91.58
2018-01-23T02:52:53.094Z,91.71
2018-01-23T02:54:20.149Z,91.82
2018-01-23T02:55:47.174Z,91.87
2018-01-23T02:57:18.355Z,91.84
2018-01-23T02:58:45.451Z,91.76
2018-01-23T03:00:12.718Z,91.74
2018-01-23T03:01:35.621Z,91.77
2018-01-23T03:03:02.826Z,91.76
2018-01-23T03:04:29.964Z,91.91
2018-01-23T03:05:57.150Z,92.10
2018-01-23T03:07:28.072Z,92.03
2018-01-23T03:08:55.286Z,92.10
2018-01-23T03:10:18.376Z,92.15
2018-01-23T03:11:49.654Z,92.26
2018-01-23T03:13:16.558Z,92.13
2018-01-23T03:14:39.743Z,92.20
2018-01-23T03:16:07.009Z,92.16
2018-01-23T03:17:34.181Z,92.27
2018-01-23T03:19:01.370Z,92.11
2018-01-23T03:20:28.445Z,92.14
2018-01-23T03:21:59.490Z,92.12
2018-01-23T03:23:26.570Z,91.86
2018-01-23T03:24:49.631Z,91.80
2018-01-23T03:26:20.901Z,91.94
2018-01-23T03:27:47.953Z,92.11
2018-01-23T03:29:15.174Z,92.17
2018-01-23T03:30:42.141Z,91.96
2018-01-23T03:32:09.309Z,91.94
2018-01-23T03:33:36.605Z,91.80
2018-01-23T03:34:59.612Z,91.91
2018-01-23T03:36:26.761Z,91.78
2018-01-23T03:37:53.825Z,91.72
2018-01-23T03:39:24.887Z,91.66
2018-01-23T03:40:52.036Z,91.55
2018-01-23T03:42:19.103Z,91.55
2018-01-23T03:43:42.346Z,91.56
2018-01-23T03:45:13.277Z,91.36
2018-01-23T03:46:36.249Z,91.77
2018-01-23T03:48:03.401Z,91.44
2018-01-23T03:49:30.371Z,91.70
2018-01-23T03:50:57.465Z,91.54
2018-01-23T03:52:24.410Z,91.12
2018-01-23T03:53:51.286Z,90.51
2018-01-23T03:55:22.550Z,90.46
2018-01-23T03:56:49.462Z,90.59
2018-01-23T03:58:12.377Z,90.53
2018-01-23T03:59:43.420Z,90.32
2018-01-23T04:01:10.701Z,90.48
2018-01-23T04:02:33.808Z,90.67
2018-01-23T04:04:00.998Z,90.91
2018-01-23T04:05:28.015Z,90.96
2018-01-23T04:06:58.850Z,91.03
2018-01-23T04:08:22.189Z,91.17
2018-01-23T04:09:49.029Z,91.27
2018-01-23T04:11:16.262Z,91.26
2018-01-23T04:12:47.274Z,91.23
2018-01-23T04:14:10.308Z,91.20
2018-01-23T04:15:37.367Z,91.05
2018-01-23T04:17:04.470Z,91.26
2018-01-23T04:18:35.491Z,91.32
2018-01-23T04:20:02.600Z,91.26
2018-01-23T04:21:29.337Z,91.38
2018-01-23T04:22:56.590Z,91.38
2018-01-23T04:24:19.608Z,91.39
2018-01-23T04:25:46.514Z,91.32
2018-01-23T04:27:17.596Z,90.97
2018-01-23T04:28:44.906Z,90.73
2018-01-23T04:30:08.036Z,91.03
2018-01-23T04:31:39.034Z,91.11
2018-01-23T04:33:01.990Z,91.12
2018-01-23T04:34:29.122Z,91.07
2018-01-23T04:35:59.884Z,91.08
2018-01-23T04:37:23.031Z,91.23
2018-01-23T04:38:54.251Z,91.10
2018-01-23T04:40:17.147Z,91.12
2018-01-23T04:41:44.309Z,91.32
2018-01-23T04:43:11.534Z,91.13
2018-01-23T04:44:38.699Z,91.31
2018-01-23T04:46:09.940Z,91.06
2018-01-23T04:47:37.095Z,91.10
2018-01-23T04:49:04.113Z,91.42
2018-01-23T04:50:27.265Z,91.20
2018-01-23T04:51:54.427Z,91.06
2018-01-23T04:53:21.518Z,91.01
2018-01-23T04:54:48.704Z,90.93
2018-01-23T04:56:19.631Z,90.99
2018-01-23T04:57:42.603Z,91.03
2018-01-23T04:59:09.574Z,90.81
2018-01-23T05:00:40.599Z,90.37
2018-01-23T05:02:03.783Z,89.95
2018-01-23T05:03:34.961Z,90.22
2018-01-23T05:05:01.959Z,90.21
2018-01-23T05:06:24.917Z,90.28
2018-01-23T05:07:55.998Z,90.33
2018-01-23T05:09:19.176Z,90.15
2018-01-23T05:10:46.435Z,90.11
2018-01-23T05:12:17.527Z,90.13
2018-01-23T05:13:40.762Z,90.15
2018-01-23T05:15:07.859Z,89.96
2018-01-23T05:16:38.852Z,90.23
2018-01-23T05:18:02.120Z,90.35
2018-01-23T05:19:33.268Z,90.49
2018-01-23T05:21:00.279Z,90.56
2018-01-23T05:22:27.367Z,90.86
2018-01-23T05:23:50.397Z,90.84
2018-01-23T05:25:17.438Z,90.81
2018-01-23T05:26:48.544Z,90.87
2018-01-23T05:28:11.772Z,91.38
2018-01-23T05:29:42.891Z,91.38
2018-01-23T05:31:05.860Z,91.09
2018-01-23T05:32:33.095Z,90.56
2018-01-23T05:34:04.158Z,89.98
2018-01-23T05:35:31.158Z,89.50
2018-01-23T05:36:54.476Z,89.41
2018-01-23T05:38:21.394Z,89.48
2018-01-23T05:39:48.551Z,89.39
2018-01-23T05:41:15.709Z,88.94
2018-01-23T05:42:42.929Z,89.06
2018-01-23T05:44:14.007Z,89.58
2018-01-23T05:45:37.141Z,89.92
2018-01-23T05:47:08.165Z,90.00
2018-01-23T05:48:35.064Z,89.75
2018-01-23T05:50:02.255Z,89.93
2018-01-23T05:51:29.362Z,89.57
2018-01-23T05:52:52.617Z,89.10
2018-01-23T05:54:19.842Z,89.63
2018-01-23T05:55:47.067Z,89.96
2018-01-23T05:57:14.313Z,90.44
2018-01-23T05:58:45.428Z,90.81
2018-01-23T06:00:08.499Z,90.49
2018-01-23T06:01:39.658Z,90.53
2018-01-23T06:03:06.798Z,90.33
2018-01-23T06:04:33.924Z,90.27
2018-01-23T06:06:01.096Z,90.14
2018-01-23T06:07:28.377Z,89.75
2018-01-23T06:08:55.683Z,89.14
2018-01-23T06:10:18.907Z,89.25
2018-01-23T06:11:49.968Z,89.62
2018-01-23T06:13:17.050Z,90.12
2018-01-23T06:14:44.202Z,90.33
2018-01-23T06:16:07.314Z,90.53
2018-01-23T06:17:38.414Z,90.30
2018-01-23T06:19:01.516Z,90.23
2018-01-23T06:20:32.500Z,89.92
2018-01-23T06:21:55.528Z,90.32
2018-01-23T06:23:26.801Z,90.25
2018-01-23T06:24:50.077Z,90.11
2018-01-23T06:26:17.151Z,90.37
2018-01-23T06:27:44.256Z,90.50
2018-01-23T06:29:11.461Z,90.50
2018-01-23T06:30:38.659Z,90.41
2018-01-23T06:32:09.596Z,90.81
2018-01-23T06:33:36.532Z,90.93
2018-01-23T06:34:59.734Z,91.41
2018-01-23T06:36:26.471Z,91.39
2018-01-23T06:37:53.579Z,91.06
2018-01-23T06:39:20.845Z,90.51
2018-01-23T06:40:48.128Z,90.57
2018-01-23T06:42:15.190Z,90.39
2018-01-23T06:43:46.252Z,90.08
2018-01-23T06:45:09.444Z,90.04
2018-01-23T06:46:40.623Z,89.53
2018-01-23T06:48:07.732Z,90.09
2018-01-23T06:49:31.003Z,90.13
2018-01-23T06:50:58.109Z,90.40
2018-01-23T06:52:28.873Z,90.23
2018-01-23T06:53:55.841Z,90.27
2018-01-23T06:55:19.056Z,90.13
2018-01-23T06:56:46.297Z,90.03
2018-01-23T06:58:13.460Z,90.07
2018-01-23T06:59:40.684Z,89.93
2018-01-23T07:01:07.622Z,89.71
2018-01-23T07:02:38.679Z,89.41
2018-01-23T07:04:01.897Z,89.78
2018-01-23T07:05:28.839Z,89.42
2018-01-23T07:06:56.003Z,89.18
2018-01-23T07:08:23.138Z,89.16
2018-01-23T07:09:54.038Z,88.91
2018-01-23T07:11:17.364Z,88.88
2018-01-23T07:12:44.391Z,89.00
2018-01-23T07:14:11.584Z,88.96
2018-01-23T07:15:42.767Z,89.01
2018-01-23T07:17:05.895Z,89.55
2018-01-23T07:18:37.084Z,89.68
2018-01-23T07:20:00.381Z,90.07
2018-01-23T07:21:27.376Z,90.13
2018-01-23T07:22:54.733Z,90.06
2018-01-23T07:24:21.868Z,89.83
2018-01-23T07:25:52.766Z,89.78
2018-01-23T07:27:22.954Z,89.83
2018-01-23T07:28:47.183Z,89.40
2018-01-23T07:30:14.274Z,89.23
2018-01-23T07:31:37.491Z,89.30
2018-01-23T07:33:04.833Z,89.26
2018-01-23T07:34:31.908Z,89.31
2018-01-23T07:35:59.063Z,89.13
2018-01-23T07:37:26.058Z,89.16
2018-01-23T07:38:52.673Z,89.21
2018-01-23T07:40:19.765Z,89.42
2018-01-23T07:41:46.784Z,89.52
2018-01-23T07:43:17.448Z,89.40
2018-01-23T07:44:40.475Z,89.47
2018-01-23T07:46:07.480Z,89.34
2018-01-23T07:47:38.452Z,89.28
2018-01-23T07:49:01.377Z,89.31
2018-01-23T07:50:32.492Z,89.19
2018-01-23T07:51:55.358Z,89.36
2018-01-23T07:53:22.469Z,89.34
2018-01-23T07:54:49.456Z,89.50
2018-01-23T07:56:20.562Z,89.45
2018-01-23T07:57:47.326Z,89.29
2018-01-23T07:59:10.438Z,89.29
2018-01-23T08:00:41.485Z,89.52
2018-01-23T08:02:04.395Z,89.70
2018-01-23T08:03:35.425Z,89.83
2018-01-23T08:04:58.415Z,89.30
2018-01-23T08:06:29.492Z,90.02
2018-01-23T08:07:52.659Z,89.98
2018-01-23T08:09:19.783Z,89.94
2018-01-23T08:10:46.827Z,89.82
2018-01-23T08:12:18.051Z,89.52
2018-01-23T08:13:41.059Z,89.44
2018-01-23T08:15:08.250Z,90.06
2018-01-23T08:16:39.380Z,90.25
2018-01-23T08:18:02.459Z,90.36
2018-01-23T08:19:29.581Z,90.31
2018-01-23T08:21:00.370Z,90.26
2018-01-23T08:22:23.080Z,90.05
2018-01-23T08:23:50.281Z,89.88
2018-01-23T08:25:21.146Z,89.69
2018-01-23T08:26:48.413Z,89.83
2018-01-23T08:28:15.490Z,89.81
2018-01-23T08:29:42.626Z,89.63
2018-01-23T08:31:05.853Z,89.49
2018-01-23T08:32:37.047Z,89.48
2018-01-23T08:34:04.087Z,89.46
2018-01-23T08:35:31.161Z,89.47
2018-01-23T08:36:58.413Z,89.18
2018-01-23T08:38:21.330Z,89.24
2018-01-23T08:39:52.595Z,89.33
2018-01-23T08:41:15.811Z,89.37
2018-01-23T08:42:43.054Z,89.17
2018-01-23T08:44:09.918Z,89.32
2018-01-23T08:45:41.046Z,89.39
2018-01-23T08:47:04.224Z,89.43
2018-01-23T08:48:31.341Z,89.26
2018-01-23T08:49:58.233Z,89.42
2018-01-23T08:51:29.297Z,89.26
2018-01-23T08:52:56.484Z,89.39
2018-01-23T08:54:23.297Z,89.44
2018-01-23T08:55:46.578Z,89.15
2018-01-23T08:57:13.891Z,88.90
2018-01-23T08:58:45.041Z,89.12
2018-01-23T09:00:12.215Z,88.88
2018-01-23T09:01:35.476Z,89.18
2018-01-23T09:03:06.721Z,89.11
2018-01-23T09:04:29.710Z,89.05
2018-01-23T09:06:00.687Z,88.96
2018-01-23T09:07:23.826Z,88.83
2018-01-23T09:08:50.866Z,88.77
2018-01-23T09:10:17.795Z,88.44
2018-01-23T09:11:45.033Z,88.73
2018-01-23T09:13:12.233Z,88.83
2018-01-23T09:14:43.540Z,89.00
2018-01-23T09:16:06.691Z,88.87
2018-01-23T09:17:37.850Z,88.84
2018-01-23T09:19:05.059Z,88.67
2018-01-23T09:20:32.155Z,89.08
2018-01-23T09:21:55.202Z,89.75
2018-01-23T09:23:22.357Z,90.08
2018-01-23T09:24:49.674Z,90.05
2018-01-23T09:26:20.819Z,89.93
2018-01-23T09:27:47.966Z,90.42
2018-01-23T09:29:10.990Z,90.44
2018-01-23T09:30:38.144Z,90.92
2018-01-23T09:32:09.236Z,91.27
2018-01-23T09:33:32.254Z,91.54
2018-01-23T09:34:59.156Z,91.51
2018-01-23T09:36:26.325Z,91.05
2018-01-23T09:37:57.381Z,91.35
2018-01-23T09:39:20.517Z,91.44
2018-01-23T09:40:51.571Z,91.33
2018-01-23T09:42:14.845Z,91.31
2018-01-23T09:43:42.081Z,91.00
2018-01-23T09:45:09.402Z,91.24
2018-01-23T09:46:36.680Z,91.35
2018-01-23T09:48:03.785Z,91.49
2018-01-23T09:49:34.784Z,91.29
2018-01-23T09:51:01.889Z,91.16
2018-01-23T09:52:24.816Z,91.47
2018-01-23T09:53:56.002Z,91.90
2018-01-23T09:55:19.200Z,91.92
2018-01-23T09:56:46.149Z,91.94
2018-01-23T09:58:17.387Z,92.05
2018-01-23T09:59:40.490Z,92.35
2018-01-23T10:01:07.708Z,91.86
2018-01-23T10:02:34.788Z,91.97
2018-01-23T10:04:02.038Z,92.50
2018-01-23T10:05:28.962Z,92.39
2018-01-23T10:06:55.996Z,92.36
2018-01-23T10:08:27.072Z,92.78
2018-01-23T10:09:50.138Z,92.71
2018-01-23T10:11:17.291Z,92.00
2018-01-23T10:12:44.719Z,92.62
2018-01-23T10:14:15.571Z,92.27
2018-01-23T10:15:38.767Z,92.50
2018-01-23T10:17:05.887Z,92.17
2018-01-23T10:18:33.062Z,92.58
2018-01-23T10:20:00.015Z,92.58
2018-01-23T10:21:27.135Z,92.54
2018-01-23T10:22:58.267Z,92.25
2018-01-23T10:24:25.435Z,92.03
2018-01-23T10:25:52.523Z,91.98
2018-01-23T10:27:15.739Z,92.14
2018-01-23T10:28:42.892Z,92.53
2018-01-23T10:30:09.888Z,92.41
2018-01-23T10:31:37.010Z,92.78
2018-01-23T10:33:04.286Z,93.00
2018-01-23T10:34:35.010Z,93.47
2018-01-23T10:35:58.257Z,94.04
2018-01-23T10:37:25.115Z,93.78
2018-01-23T10:38:52.347Z,93.20
2018-01-23T10:40:23.376Z,92.81
2018-01-23T10:41:46.633Z,92.83
2018-01-23T10:43:17.771Z,93.10
2018-01-23T10:44:44.939Z,92.81
2018-01-23T10:46:12.056Z,93.06
2018-01-23T10:47:35.247Z,93.18
2018-01-23T10:49:06.231Z,93.03
2018-01-23T10:50:33.314Z,93.13
2018-01-23T10:52:00.556Z,92.88
2018-01-23T10:53:27.731Z,92.58
2018-01-23T10:54:54.696Z,92.78
2018-01-23T10:56:17.950Z,92.95
2018-01-23T10:57:49.195Z,93.52
2018-01-23T10:59:16.379Z,93.34
2018-01-23T11:00:39.515Z,92.86
2018-01-23T11:02:06.710Z,92.94
2018-01-23T11:03:37.862Z,93.05
2018-01-23T11:05:04.965Z,92.95
2018-01-23T11:06:31.983Z,92.71
2018-01-23T11:07:54.986Z,92.42
2018-01-23T11:09:22.191Z,92.26
2018-01-23T11:10:53.342Z,92.19
2018-01-23T11:12:20.287Z,92.19
2018-01-23T11:13:43.507Z,92.46
2018-01-23T11:15:10.188Z,92.53
2018-01-23T11:16:37.317Z,92.74
2018-01-23T11:18:04.550Z,92.90
2018-01-23T11:19:31.700Z,92.75
2018-01-23T11:21:02.703Z,93.11
2018-01-23T11:22:29.581Z,93.09
2018-01-23T11:23:52.858Z,92.83
2018-01-23T11:25:24.160Z,92.70
2018-01-23T11:26:47.420Z,92.66
2018-01-23T11:28:18.465Z,92.43
2018-01-23T11:29:41.678Z,92.30
2018-01-23T11:31:08.911Z,92.20
2018-01-23T11:32:36.125Z,92.06
2018-01-23T11:34:07.184Z,91.86
2018-01-23T11:35:30.460Z,91.66
2018-01-23T11:37:01.473Z,91.88
2018-01-23T11:38:28.827Z,92.09
2018-01-23T11:39:52.191Z,92.25
2018-01-23T11:41:19.278Z,92.43
2018-01-23T11:42:50.344Z,92.36
2018-01-23T11:44:13.555Z,92.52
2018-01-23T11:45:44.586Z,92.43
2018-01-23T11:47:11.570Z,92.57
2018-01-23T11:48:38.764Z,92.76
2018-01-23T11:50:02.018Z,92.89
2018-01-23T11:51:29.088Z,93.04
2018-01-23T11:53:00.151Z,93.11
2018-01-23T11:54:23.490Z,93.24
2018-01-23T11:55:50.617Z,93.11
2018-01-23T11:57:21.778Z,93.03
2018-01-23T11:58:44.680Z,93.00
2018-01-23T12:00:11.885Z,93.20
2018-01-23T12:01:43.016Z,93.24
2018-01-23T12:03:10.176Z,93.41
2018-01-23T12:04:33.424Z,93.40
2018-01-23T12:06:00.563Z,93.50
2018-01-23T12:07:27.172Z,93.21
2018-01-23T12:08:54.483Z,93.41
2018-01-23T12:10:25.730Z,93.39
2018-01-23T12:11:52.868Z,93.63
2018-01-23T12:13:15.993Z,93.47
2018-01-23T12:14:43.286Z,93.58
2018-01-23T12:16:10.129Z,93.48
2018-01-23T12:17:41.260Z,93.25
2018-01-23T12:19:04.547Z,93.48
2018-01-23T12:20:35.626Z,93.37
2018-01-23T12:21:58.773Z,93.50
2018-01-23T12:23:25.724Z,93.50
2018-01-23T12:24:57.571Z,93.47
2018-01-23T12:26:23.994Z,93.41
2018-01-23T12:27:46.819Z,93.32
2018-01-23T12:29:14.196Z,93.51
2018-01-23T12:30:45.334Z,93.42
2018-01-23T12:32:08.061Z,93.68
2018-01-23T12:33:39.147Z,93.82
2018-01-23T12:35:02.229Z,93.83
2018-01-23T12:36:33.535Z,93.97
2018-01-23T12:37:56.360Z,94.00
2018-01-23T12:39:27.539Z,94.02
2018-01-23T12:40:54.749Z,94.37
2018-01-23T12:42:21.969Z,94.32
2018-01-23T12:43:45.083Z,94.45
2018-01-23T12:45:15.810Z,94.56
2018-01-23T12:46:39.002Z,94.50
2018-01-23T12:48:06.315Z,94.57
2018-01-23T12:49:37.427Z,94.61
2018-01-23T12:51:04.643Z,94.51
2018-01-23T12:52:27.925Z,94.59
2018-01-23T12:53:58.491Z,94.56
2018-01-23T12:55:21.780Z,94.56
2018-01-23T12:56:48.921Z,94.43
2018-01-23T12:58:16.076Z,94.50
2018-01-23T12:59:47.386Z,94.52
2018-01-23T13:01:14.469Z,94.64
2018-01-23T13:02:41.745Z,94.60
2018-01-23T13:04:09.100Z,94.69
2018-01-23T13:05:31.865Z,94.76
2018-01-23T13:07:03.035Z,94.84
2018-01-23T13:08:26.275Z,94.81
2018-01-23T13:09:53.271Z,94.81
2018-01-23T13:11:24.296Z,94.85
2018-01-23T13:12:47.179Z,94.86
2018-01-23T13:14:14.193Z,94.76
2018-01-23T13:15:41.455Z,94.77
2018-01-23T13:17:12.714Z,94.88
2018-01-23T13:18:40.042Z,94.96
2018-01-23T13:20:03.219Z,94.97
2018-01-23T13:21:30.395Z,94.93
2018-01-23T13:23:01.381Z,94.98
2018-01-23T13:24:28.777Z,95.08
2018-01-23T13:25:56.011Z,95.15
2018-01-23T13:27:19.159Z,95.22
2018-01-23T13:28:50.397Z,95.19
2018-01-23T13:30:13.519Z,95.01
2018-01-23T13:31:44.795Z,95.03
2018-01-23T13:33:07.860Z,95.02
2018-01-23T13:34:38.717Z,95.06
2018-01-23T13:36:05.665Z,95.10
2018-01-23T13:37:28.746Z,95.14
2018-01-23T13:38:56.069Z,95.12
2018-01-23T13:40:26.907Z,95.06
2018-01-23T13:41:54.294Z,95.17
2018-01-23T13:43:21.375Z,95.18
2018-01-23T13:44:44.720Z,95.29
2018-01-23T13:46:15.903Z,95.28
2018-01-23T13:47:39.126Z,95.27
2018-01-23T13:49:10.094Z,95.34
2018-01-23T13:50:33.220Z,95.31
2018-01-23T13:52:00.451Z,95.45
2018-01-23T13:53:27.660Z,95.51
2018-01-23T13:54:58.836Z,95.61
2018-01-23T13:56:26.160Z,95.71
2018-01-23T13:57:53.342Z,95.73
2018-01-23T13:59:16.684Z,95.81
2018-01-23T14:00:43.935Z,95.85
2018-01-23T14:02:11.200Z,95.78
2018-01-23T14:03:38.017Z,95.91
2018-01-23T14:05:05.151Z,95.85
2018-01-23T14:06:36.227Z,95.82
2018-01-23T14:08:03.412Z,95.89
2018-01-23T14:09:26.666Z,96.00
2018-01-23T14:10:53.893Z,96.03
2018-01-23T14:12:25.168Z,96.06
2018-01-23T14:13:52.404Z,96.18
2018-01-23T14:15:19.586Z,96.27
2018-01-23T14:16:46.693Z,96.28
2018-01-23T14:18:09.740Z,96.40
2018-01-23T14:19:36.978Z,96.42
2018-01-23T14:21:08.032Z,96.52
2018-01-23T14:22:31.113Z,96.56
2018-01-23T14:23:58.227Z,96.63
2018-01-23T14:25:29.253Z,96.58
2018-01-23T14:26:52.567Z,96.59
2018-01-23T14:28:19.914Z,96.61
2018-01-23T14:29:51.187Z,96.77
2018-01-23T14:31:14.436Z,96.91
2018-01-23T14:32:41.612Z,97.04
2018-01-23T14:34:12.831Z,97.09
2018-01-23T14:35:35.963Z,97.23
2018-01-23T14:37:07.017Z,97.26
2018-01-23T14:38:30.286Z,97.29
2018-01-23T14:39:57.320Z,97.25
2018-01-23T14:41:28.498Z,97.24
2018-01-23T14:42:51.610Z,97.19
2018-01-23T14:44:18.901Z,97.23
2018-01-23T14:45:50.087Z,97.25
2018-01-23T14:47:12.856Z,97.28
2018-01-23T14:48:43.821Z,97.45
2018-01-23T14:50:06.967Z,97.52
2018-01-23T14:51:34.055Z,97.59
2018-01-23T14:53:04.968Z,97.68
2018-01-23T14:54:27.981Z,97.69
2018-01-23T14:55:55.030Z,97.94
2018-01-23T14:57:22.135Z,98.08
2018-01-23T14:58:53.477Z,98.23
2018-01-23T15:00:20.735Z,98.27
2018-01-23T15:01:43.963Z,98.29
2018-01-23T15:03:14.953Z,98.31
2018-01-23T15:04:38.251Z,98.36
2018-01-23T15:06:09.397Z,98.45
2018-01-23T15:07:36.577Z,98.45
2018-01-23T15:09:03.709Z,98.54
2018-01-23T15:10:30.969Z,98.58
2018-01-23T15:11:54.293Z,98.80
2018-01-23T15:13:21.586Z,98.86
2018-01-23T15:14:52.772Z,98.96
2018-01-23T15:16:15.902Z,99.03
2018-01-23T15:17:46.751Z,99.08
2018-01-23T15:19:14.140Z,99.20
2018-01-23T15:20:41.269Z,99.28
2018-01-23T15:22:04.343Z,99.32
2018-01-23T15:23:31.758Z,99.39
2018-01-23T15:24:58.905Z,99.37
2018-01-23T15:26:25.885Z,99.37
2018-01-23T15:27:52.918Z,99.32
2018-01-23T15:29:24.215Z,99.40
2018-01-23T15:30:47.397Z,99.48
2018-01-23T15:32:18.592Z,99.50
2018-01-23T15:33:41.662Z,99.47
2018-01-23T15:35:12.768Z,99.53
2018-01-23T15:36:39.900Z,99.60
2018-01-23T15:38:07.141Z,99.63
2018-01-23T15:39:30.368Z,99.57
2018-01-23T15:40:57.276Z,99.53
2018-01-23T15:42:24.510Z,99.61
2018-01-23T15:43:55.531Z,99.55
2018-01-23T15:45:22.691Z,99.52
2018-01-23T15:46:49.803Z,99.47
2018-01-23T15:48:12.965Z,99.56
2018-01-23T15:49:40.297Z,99.50
2018-01-23T15:51:07.564Z,99.46
2018-01-23T15:52:34.665Z,99.38
2018-01-23T15:54:05.555Z,99.38
2018-01-23T15:55:28.699Z,99.41
2018-01-23T15:56:55.857Z,99.52
2018-01-23T15:58:23.076Z,99.56
2018-01-23T15:59:50.140Z,99.58
2018-01-23T16:01:21.448Z,99.64
2018-01-23T16:02:48.613Z,99.65
2018-01-23T16:04:11.550Z,99.72
2018-01-23T16:05:38.557Z,99.68
2018-01-23T16:07:05.729Z,99.62
2018-01-23T16:08:36.787Z,99.55
2018-01-23T16:10:03.876Z,99.57
2018-01-23T16:11:31.059Z,99.55
2018-01-23T16:12:58.273Z,99.61
2018-01-23T16:14:21.387Z,99.65
2018-01-23T16:15:52.621Z,99.64
2018-01-23T16:17:15.706Z,99.65
2018-01-23T16:18:42.788Z,99.67
2018-01-23T16:20:14.059Z,99.63
2018-01-23T16:21:37.337Z,99.61
2018-01-23T16:23:08.517Z,99.55
2018-01-23T16:24:31.733Z,99.51
2018-01-23T16:25:58.985Z,99.47
2018-01-23T16:27:26.139Z,99.34
2018-01-23T16:28:57.344Z,99.29
2018-01-23T16:30:20.746Z,99.27
2018-01-23T16:31:47.799Z,99.25
2018-01-23T16:33:14.900Z,99.20
2018-01-23T16:34:46.149Z,99.10
2018-01-23T16:36:09.509Z,99.12
2018-01-23T16:37:40.564Z,99.10
2018-01-23T16:39:07.791Z,99.10
2018-01-23T16:40:31.109Z,99.07
2018-01-23T16:42:02.265Z,99.00
2018-01-23T16:43:25.250Z,99.02
2018-01-23T16:44:52.710Z,98.99
2018-01-23T16:46:20.040Z,99.04
2018-01-23T16:47:46.999Z,99.02
2018-01-23T16:49:18.216Z,99.09
2018-01-23T16:50:45.500Z,99.20
2018-01-23T16:52:13.644Z,99.21
2018-01-23T16:53:39.859Z,99.25
2018-01-23T16:55:03.107Z,99.30
2018-01-23T16:56:30.023Z,99.29
2018-01-23T16:58:01.314Z,99.43
2018-01-23T16:59:28.374Z,99.51
2018-01-23T17:00:51.380Z,99.64
2018-01-23T17:02:22.810Z,99.68
2018-01-23T17:03:50.134Z,99.76
2018-01-23T17:05:12.966Z,99.89
2018-01-23T17:06:44.242Z,99.83
2018-01-23T17:08:11.562Z,99.79
2018-01-23T17:09:38.787Z,99.79
2018-01-23T17:11:01.847Z,99.78
2018-01-23T17:12:29.053Z,99.95
2018-01-23T17:13:59.972Z,99.98
2018-01-23T17:15:23.154Z,100.00
2018-01-23T17:16:54.042Z,99.96
2018-01-23T17:18:17.272Z,100.00
2018-01-23T17:19:44.094Z,100.00
2018-01-23T17:21:15.311Z,100.00
2018-01-23T17:22:37.961Z,100.00
2018-01-23T17:24:09.119Z,100.00
2018-01-23T17:25:32.218Z,100.00
2018-01-23T17:27:02.936Z,100.00
2018-01-23T17:28:29.712Z,100.00
2018-01-23T17:29:52.962Z,100.00
2018-01-23T17:31:24.124Z,100.00
2018-01-23T17:32:46.988Z,100.00
2018-01-23T17:34:14.283Z,100.00
2018-01-23T17:35:45.522Z,100.00
2018-01-23T17:37:12.649Z,100.00
2018-01-23T17:38:38.890Z,100.00
2018-01-23T17:40:02.102Z,100.00
2018-01-23T17:41:32.631Z,100.00
2018-01-23T17:42:55.368Z,100.00
2018-01-23T17:44:22.608Z,100.00
2018-01-23T17:45:49.916Z,100.00
2018-01-23T17:47:21.244Z,100.00
2018-01-23T17:48:44.467Z,100.00
2018-01-23T17:50:15.627Z,100.00
2018-01-23T17:51:42.284Z,100.00
2018-01-23T17:53:09.435Z,100.00
2018-01-23T17:54:32.687Z,100.00
2018-01-23T17:56:03.561Z,100.00
2018-01-23T17:57:30.713Z,100.00
2018-01-23T17:58:53.761Z,100.00
2018-01-23T18:00:20.941Z,100.00
2018-01-23T18:01:48.141Z,100.00
2018-01-23T18:03:15.373Z,100.00
2018-01-23T18:04:42.578Z,100.00
2018-01-23T18:06:09.840Z,100.00
2018-01-23T18:07:37.063Z,100.00
2018-01-23T18:09:08.050Z,100.00
2018-01-23T18:10:35.242Z,100.00
2018-01-23T18:12:02.367Z,100.00
2018-01-23T18:13:29.427Z,100.00
2018-01-23T18:14:52.576Z,100.00
2018-01-23T18:16:20.021Z,100.00
2018-01-23T18:17:47.146Z,100.00
2018-01-23T18:19:14.176Z,100.00
2018-01-23T18:20:45.447Z,100.00
2018-01-23T18:22:08.595Z,100.00
2018-01-23T18:23:39.889Z,100.00
2018-01-23T18:25:07.077Z,100.00
2018-01-23T18:26:30.316Z,100.00
2018-01-23T18:27:57.425Z,100.00
2018-01-23T18:29:24.534Z,100.00
2018-01-23T18:30:51.259Z,100.00
2018-01-23T18:32:18.361Z,100.00
2018-01-23T18:33:45.559Z,100.00
2018-01-23T18:35:12.986Z,100.00
2018-01-23T18:36:40.200Z,100.00
2018-01-23T18:38:07.431Z,100.00